Monte Brasil — CSEM — position and weather

sailwx.info

Track history (hours):
 
Tides and Currents Weather Stations Pressure Air Temp Water Temp Dewpoint Dewpoint Depression Visibility Wind Speed Wind Dir Waves Ship Positions

Monte Brasil

Last reported at 2018-Jul-21 15:28 UTC. Time now 2018-Jul-21 15:33 UTC.
Position N 37°44' W 025°40'.

Length 127 m; draft 6.4 m.

Type: Cargo ship. MMSI: 255806010.

Date/timePositionNaut miles runAvg speedWind from/ knotsBaromVisibWave heightAir tempDewpointWater temp
2018-Jul-21 15:28N 37°44' W 025°40'0 0.0
2018-Jul-21 14:58N 37°44' W 025°40'0 0.0
2018-Jul-21 14:28N 37°44' W 025°40'0 0.0
2018-Jul-21 13:28N 37°44' W 025°40'0 0.0
2018-Jul-21 12:58N 37°44' W 025°40'0 0.0
2018-Jul-21 12:28N 37°44' W 025°40'0 0.0
2018-Jul-21 11:58N 37°44' W 025°40'0 0.0
2018-Jul-21 11:28N 37°44' W 025°40'0 0.0
2018-Jul-21 10:58N 37°44' W 025°40'0 0.0
2018-Jul-21 10:28N 37°44' W 025°40'0 0.0
2018-Jul-21 09:58N 37°44' W 025°40'0 0.0
2018-Jul-21 09:28N 37°44' W 025°40'0 0.0
2018-Jul-21 08:58N 37°44' W 025°40'0 0.0
2018-Jul-21 08:28N 37°44' W 025°40'0 0.0
2018-Jul-21 07:58N 37°44' W 025°40'0 0.0
2018-Jul-21 07:28N 37°44' W 025°40'0 0.0
2018-Jul-21 06:58N 37°44' W 025°40'0 0.0
2018-Jul-21 06:28N 37°44' W 025°40'0 0.0
2018-Jul-21 05:58N 37°44' W 025°40'0 0.0
2018-Jul-21 05:31N 37°44' W 025°40'0 0.0
2018-Jul-21 05:01N 37°44' W 025°40'0 0.0
2018-Jul-21 04:31N 37°44' W 025°40'0 0.0
2018-Jul-21 04:00N 37°44' W 025°40'0 0.0
2018-Jul-21 03:30N 37°44' W 025°40'0 0.0
2018-Jul-21 03:00N 37°44' W 025°40'0 0.0
2018-Jul-21 02:30N 37°44' W 025°40'0 0.0
2018-Jul-21 02:00N 37°44' W 025°40'0 0.0
2018-Jul-21 01:30N 37°44' W 025°40'0 0.0
2018-Jul-21 01:00N 37°44' W 025°40'0 0.0
2018-Jul-21 00:30N 37°44' W 025°40'0 0.0
2018-Jul-21 00:00N 37°44' W 025°40'0 0.0
2018-Jul-20 23:30N 37°44' W 025°40'0 0.0
2018-Jul-20 23:00N 37°44' W 025°40'0 0.0
2018-Jul-20 22:30N 37°44' W 025°40'1 1.1
2018-Jul-20 22:00N 37°44' W 025°39'4 8.0
2018-Jul-20 21:30N 37°44' W 025°44'816.5
2018-Jul-20 21:00N 37°49' W 025°52'816.7
2018-Jul-20 20:30N 37°54' W 026°00'916.8
2018-Jul-20 20:00N 38°01' W 026°07'816.8
2018-Jul-20 19:30N 38°07' W 026°15'816.5
2018-Jul-20 19:00N 38°12' W 026°22'4316.5
2018-Jul-20 16:23N 38°43' W 027°02'1 0.0
2018-Jul-19 11:32N 38°43' W 027°03'0 0.0
2018-Jul-19 07:27N 38°43' W 027°03'1 2.6
2018-Jul-19 07:00N 38°43' W 027°02'1 2.9
2018-Jul-19 06:30N 38°42' W 026°60'1 1.9
2018-Jul-19 06:00N 38°43' W 027°01'2711.5
2018-Jul-19 03:38N 38°32' W 027°32'312.9
2018-Jul-19 03:25N 38°31' W 027°36'613.2
2018-Jul-19 02:58N 38°30' W 027°43'613.2
2018-Jul-19 02:31N 38°30' W 027°51'713.3
2018-Jul-19 02:00N 38°31' W 027°59'713.8
2018-Jul-19 01:30N 38°33' W 028°08'714.1
2018-Jul-19 01:01N 38°34' W 028°17'713.6
2018-Jul-19 00:30N 38°36' W 028°25'612.5
2018-Jul-19 00:00N 38°33' W 028°33'4 7.6
2018-Jul-18 23:30N 38°32' W 028°37'0 0.0
2018-Jul-18 22:56N 38°32' W 028°37'0 0.0
2018-Jul-18 22:26N 38°32' W 028°37'0 0.0
2018-Jul-18 21:59N 38°32' W 028°37'0 0.0
2018-Jul-18 21:29N 38°32' W 028°37'0 0.0
2018-Jul-18 20:59N 38°32' W 028°37'0 0.0
2018-Jul-18 20:29N 38°32' W 028°37'0 0.0
2018-Jul-18 19:59N 38°32' W 028°37'0 0.0
2018-Jul-18 19:29N 38°32' W 028°37'0 0.0
2018-Jul-18 18:59N 38°32' W 028°37'0 0.0
2018-Jul-18 18:26N 38°32' W 028°37'0 0.0
2018-Jul-18 17:59N 38°32' W 028°37'0 0.0
2018-Jul-18 17:29N 38°32' W 028°37'0 0.0
2018-Jul-18 16:56N 38°32' W 028°37'0 0.0
2018-Jul-18 16:29N 38°32' W 028°37'0 0.0
2018-Jul-18 15:59N 38°32' W 028°37'0 0.0
2018-Jul-18 15:29N 38°32' W 028°37'0 0.0
2018-Jul-18 14:59N 38°32' W 028°37'0 0.0
2018-Jul-18 14:29N 38°32' W 028°37'0 0.0
2018-Jul-18 13:29N 38°32' W 028°37'0 0.0
2018-Jul-18 12:59N 38°32' W 028°37'0 0.0
2018-Jul-18 12:29N 38°32' W 028°37'0 0.0
2018-Jul-18 11:59N 38°32' W 028°37'0 0.1
2018-Jul-18 11:30N 38°32' W 028°37'1110.8
2018-Jul-18 10:31N 38°35' W 028°24'815.6
2018-Jul-18 10:00N 38°32' W 028°15'815.3
2018-Jul-18 09:30N 38°29' W 028°06'815.2
2018-Jul-18 09:00N 38°26' W 027°57'815.5
2018-Jul-18 08:31N 38°23' W 027°47'916.0
2018-Jul-18 07:57N 38°20' W 027°37'2015.5
2018-Jul-18 06:41N 38°13' W 027°14'1315.2
2018-Jul-18 05:50N 38°07' W 026°59'516.6
2018-Jul-18 05:30N 38°05' W 026°52'816.2
2018-Jul-18 05:00N 38°02' W 026°43'816.2
2018-Jul-18 04:30N 37°59' W 026°33'816.3
2018-Jul-18 04:00N 37°56' W 026°24'815.7
2018-Jul-18 03:31N 37°53' W 026°14'816.0
2018-Jul-18 03:00N 37°50' W 026°05'816.4
2018-Jul-18 02:30N 37°47' W 025°56'815.9
2018-Jul-18 02:01N 37°44' W 025°46'611.3
2018-Jul-18 01:31N 37°44' W 025°39'0 0.8
2018-Jul-18 01:00N 37°44' W 025°40'0 0.0
2018-Jul-18 00:28N 37°44' W 025°40'0 0.0
2018-Jul-17 23:58N 37°44' W 025°40'0 0.0
2018-Jul-17 23:28N 37°44' W 025°40'0 0.0
2018-Jul-17 22:58N 37°44' W 025°40'0 0.0
2018-Jul-17 22:28N 37°44' W 025°40'0 0.0
2018-Jul-17 21:58N 37°44' W 025°40'0 0.0
2018-Jul-17 21:31N 37°44' W 025°40'0 0.0
2018-Jul-17 21:00N 37°44' W 025°40'0 0.0
2018-Jul-17 20:30N 37°44' W 025°40'0 0.0
2018-Jul-17 20:00N 37°44' W 025°40'0 0.0
2018-Jul-17 19:30N 37°44' W 025°40'0 0.0
2018-Jul-17 19:00N 37°44' W 025°40'0 0.0
2018-Jul-17 18:30N 37°44' W 025°40'0 0.0
2018-Jul-17 18:00N 37°44' W 025°40'0 0.0
2018-Jul-17 17:30N 37°44' W 025°40'0 0.0
2018-Jul-17 17:00N 37°44' W 025°40'0 0.0
2018-Jul-17 16:30N 37°44' W 025°40'0 0.0
2018-Jul-17 16:00N 37°44' W 025°40'0 0.0
2018-Jul-17 15:30N 37°44' W 025°40'0 0.0
2018-Jul-17 15:00N 37°44' W 025°40'0 0.0
2018-Jul-17 14:27N 37°44' W 025°40'0 0.0
2018-Jul-17 14:00N 37°44' W 025°40'0 0.0
2018-Jul-17 13:30N 37°44' W 025°40'0 0.0
2018-Jul-17 13:00N 37°44' W 025°40'0 0.0
2018-Jul-17 12:30N 37°44' W 025°40'0 0.0
2018-Jul-17 12:00N 37°44' W 025°40'0 0.0
2018-Jul-17 11:30N 37°44' W 025°40'0 0.0
2018-Jul-17 11:00N 37°44' W 025°40'0 0.0
2018-Jul-17 10:30N 37°44' W 025°40'0 0.0
2018-Jul-17 10:00N 37°44' W 025°40'0 0.0
2018-Jul-17 09:30N 37°44' W 025°40'0 0.0
2018-Jul-17 09:00N 37°44' W 025°40'0 0.0
2018-Jul-17 08:30N 37°44' W 025°40'0 0.0
2018-Jul-17 08:00N 37°44' W 025°40'0 0.0
2018-Jul-17 07:30N 37°44' W 025°40'0 0.0
2018-Jul-17 07:00N 37°44' W 025°40'0 0.0
2018-Jul-17 06:30N 37°44' W 025°40'0 0.0
2018-Jul-17 06:00N 37°44' W 025°40'0 0.0
2018-Jul-17 05:30N 37°44' W 025°40'0 0.0
2018-Jul-17 05:00N 37°44' W 025°40'0 0.0
2018-Jul-17 04:30N 37°44' W 025°40'0 0.0
2018-Jul-17 04:00N 37°44' W 025°40'0 0.0
2018-Jul-17 03:30N 37°44' W 025°40'0 0.0
2018-Jul-17 03:00N 37°44' W 025°40'0 0.0
2018-Jul-17 02:30N 37°44' W 025°40'0 0.0
2018-Jul-17 02:00N 37°44' W 025°40'0 0.0
2018-Jul-17 01:30N 37°44' W 025°40'0 0.0
2018-Jul-17 01:00N 37°44' W 025°40'0 0.0
2018-Jul-17 00:27N 37°44' W 025°40'0 0.0
2018-Jul-16 23:30N 37°44' W 025°40'0 0.0
2018-Jul-16 23:00N 37°44' W 025°40'0 0.0
2018-Jul-16 22:30N 37°44' W 025°40'0 0.0
2018-Jul-16 22:00N 37°44' W 025°40'0 0.0
2018-Jul-16 21:30N 37°44' W 025°40'0 0.0
2018-Jul-16 21:00N 37°44' W 025°40'0 0.0
2018-Jul-16 20:30N 37°44' W 025°40'0 0.0
2018-Jul-16 20:00N 37°44' W 025°40'0 0.0
2018-Jul-16 19:30N 37°44' W 025°40'0 0.0
2018-Jul-16 19:00N 37°44' W 025°40'0 0.0
2018-Jul-16 18:30N 37°44' W 025°40'0 0.0
2018-Jul-16 18:00N 37°44' W 025°40'0 0.0
2018-Jul-16 17:30N 37°44' W 025°40'0 0.0
2018-Jul-16 17:00N 37°44' W 025°40'0 0.0
2018-Jul-16 16:30N 37°44' W 025°40'0 0.0
2018-Jul-16 16:00N 37°44' W 025°40'0 0.0
2018-Jul-16 15:30N 37°44' W 025°40'0 0.0
2018-Jul-16 15:00N 37°44' W 025°40'0 0.0
2018-Jul-16 14:30N 37°44' W 025°40'0 0.0
2018-Jul-16 14:00N 37°44' W 025°40'0 0.0
2018-Jul-16 13:30N 37°44' W 025°40'0 0.0
2018-Jul-16 13:00N 37°44' W 025°40'0 0.0
2018-Jul-16 12:30N 37°44' W 025°40'0 0.0
2018-Jul-16 12:00N 37°44' W 025°40'0 0.0
2018-Jul-16 11:30N 37°44' W 025°40'0 0.0
2018-Jul-16 11:00N 37°44' W 025°40'0 0.0
2018-Jul-16 10:30N 37°44' W 025°40'0 0.0
2018-Jul-16 10:00N 37°44' W 025°40'0 0.0
2018-Jul-16 09:30N 37°44' W 025°40'0 0.0
2018-Jul-16 09:00N 37°44' W 025°40'0 0.0
2018-Jul-16 08:30N 37°44' W 025°40'0 0.0
2018-Jul-16 08:00N 37°44' W 025°40'0 0.0
2018-Jul-16 07:29N 37°44' W 025°40'0 0.0
2018-Jul-16 06:59N 37°44' W 025°40'0 0.0
2018-Jul-16 06:29N 37°44' W 025°40'0 0.0
2018-Jul-16 05:56N 37°44' W 025°40'0 0.0
2018-Jul-16 05:29N 37°44' W 025°40'0 0.0
2018-Jul-16 04:59N 37°44' W 025°40'0 0.0
2018-Jul-16 04:29N 37°44' W 025°40'0 0.0
2018-Jul-16 03:59N 37°44' W 025°40'0 0.0
2018-Jul-16 03:29N 37°44' W 025°40'0 0.0
2018-Jul-16 02:59N 37°44' W 025°40'0 0.0
2018-Jul-16 02:29N 37°44' W 025°40'0 0.0
2018-Jul-16 01:59N 37°44' W 025°40'0 0.0
2018-Jul-16 01:29N 37°44' W 025°40'0 0.0
2018-Jul-16 00:56N 37°44' W 025°40'0 0.0
2018-Jul-16 00:29N 37°44' W 025°40'0 0.0
2018-Jul-15 23:59N 37°44' W 025°40'0 0.0
2018-Jul-15 23:29N 37°44' W 025°40'0 0.0
2018-Jul-15 22:59N 37°44' W 025°40'0 0.0
2018-Jul-15 22:29N 37°44' W 025°40'0 0.0
2018-Jul-15 21:59N 37°44' W 025°40'0 0.0
2018-Jul-15 21:29N 37°44' W 025°40'0 0.0
2018-Jul-15 20:59N 37°44' W 025°40'0 0.0
2018-Jul-15 20:29N 37°44' W 025°40'0 0.0
2018-Jul-15 19:59N 37°44' W 025°40'0 0.0
2018-Jul-15 19:29N 37°44' W 025°40'0 0.0
2018-Jul-15 18:59N 37°44' W 025°40'0 0.0
2018-Jul-15 18:29N 37°44' W 025°40'0 0.0
2018-Jul-15 17:59N 37°44' W 025°40'0 0.0
2018-Jul-15 17:29N 37°44' W 025°40'0 0.0
2018-Jul-15 16:59N 37°44' W 025°40'0 0.0
2018-Jul-15 16:29N 37°44' W 025°40'0 0.0
2018-Jul-15 15:59N 37°44' W 025°40'0 0.0
2018-Jul-15 15:29N 37°44' W 025°40'0 0.0
2018-Jul-15 14:59N 37°44' W 025°40'0 0.0
2018-Jul-15 14:23N 37°44' W 025°40'0 0.0
2018-Jul-15 13:59N 37°44' W 025°40'0 0.0
2018-Jul-15 13:29N 37°44' W 025°40'0 0.0
2018-Jul-15 12:59N 37°44' W 025°40'0 0.0
2018-Jul-15 12:29N 37°44' W 025°40'0 0.0
2018-Jul-15 11:59N 37°44' W 025°40'0 0.0
2018-Jul-15 11:29N 37°44' W 025°40'0 0.0
2018-Jul-15 10:59N 37°44' W 025°40'0 0.0
2018-Jul-15 10:29N 37°44' W 025°40'0 0.0
2018-Jul-15 09:59N 37°44' W 025°40'0 0.0
2018-Jul-15 09:29N 37°44' W 025°40'0 0.0
2018-Jul-15 08:59N 37°44' W 025°40'0 0.0
2018-Jul-15 08:29N 37°44' W 025°40'0 0.0
2018-Jul-15 07:59N 37°44' W 025°40'0 0.0
2018-Jul-15 07:29N 37°44' W 025°40'0 0.0
2018-Jul-15 06:59N 37°44' W 025°40'0 0.0
2018-Jul-15 06:29N 37°44' W 025°40'0 0.0
2018-Jul-15 05:59N 37°44' W 025°40'0 0.0
2018-Jul-15 05:29N 37°44' W 025°40'0 0.0
2018-Jul-15 04:59N 37°44' W 025°40'0 0.0
2018-Jul-15 04:29N 37°44' W 025°40'0 0.0
2018-Jul-15 03:59N 37°44' W 025°40'0 0.0
2018-Jul-15 03:29N 37°44' W 025°40'0 0.0
2018-Jul-15 02:59N 37°44' W 025°40'0 0.0
2018-Jul-15 02:29N 37°44' W 025°40'0 0.0
2018-Jul-15 01:59N 37°44' W 025°40'0 0.0
2018-Jul-15 01:29N 37°44' W 025°40'0 0.0
2018-Jul-15 00:59N 37°44' W 025°40'0 0.0
2018-Jul-15 00:29N 37°44' W 025°40'0 0.0
2018-Jul-14 23:59N 37°44' W 025°40'0 0.0
2018-Jul-14 23:29N 37°44' W 025°40'0 0.0
2018-Jul-14 22:59N 37°44' W 025°40'0 0.0
2018-Jul-14 22:29N 37°44' W 025°40'0 0.0
2018-Jul-14 21:59N 37°44' W 025°40'0 0.0
2018-Jul-14 21:29N 37°44' W 025°40'0 0.0
2018-Jul-14 20:59N 37°44' W 025°40'0 0.0
2018-Jul-14 20:29N 37°44' W 025°40'0 0.0
2018-Jul-14 19:59N 37°44' W 025°40'0 0.0
2018-Jul-14 19:29N 37°44' W 025°40'0 0.0
2018-Jul-14 18:59N 37°44' W 025°40'0 0.0
2018-Jul-14 18:28N 37°44' W 025°40'0 0.0
2018-Jul-14 17:58N 37°44' W 025°40'0 0.0
2018-Jul-14 17:28N 37°44' W 025°40'0 0.0
2018-Jul-14 16:58N 37°44' W 025°40'0 0.0
2018-Jul-14 16:28N 37°44' W 025°40'0 0.0
2018-Jul-14 15:58N 37°44' W 025°40'0 0.0
2018-Jul-14 15:28N 37°44' W 025°40'0 0.0
2018-Jul-14 14:58N 37°44' W 025°40'0 0.0
2018-Jul-14 14:28N 37°44' W 025°40'0 0.0
2018-Jul-14 13:28N 37°44' W 025°40'0 0.0
2018-Jul-14 12:58N 37°44' W 025°40'0 0.0
2018-Jul-14 12:28N 37°44' W 025°40'0 0.0
2018-Jul-14 11:58N 37°44' W 025°40'0 0.0
2018-Jul-14 11:28N 37°44' W 025°40'0 0.0
2018-Jul-14 10:58N 37°44' W 025°40'0 0.0
2018-Jul-14 10:28N 37°44' W 025°40'0 0.0
2018-Jul-14 09:58N 37°44' W 025°40'0 0.0
2018-Jul-14 09:28N 37°44' W 025°40'0 0.0
2018-Jul-14 08:58N 37°44' W 025°40'0 0.0
2018-Jul-14 08:28N 37°44' W 025°40'0 0.0
2018-Jul-14 07:58N 37°44' W 025°40'0 0.0
2018-Jul-14 07:28N 37°44' W 025°40'0 0.0
2018-Jul-14 06:58N 37°44' W 025°40'0 0.0
2018-Jul-14 06:30N 37°44' W 025°40'0 0.0
2018-Jul-14 06:00N 37°44' W 025°40'0 0.0
2018-Jul-14 05:30N 37°44' W 025°40'0 0.0
2018-Jul-14 04:59N 37°44' W 025°40'0 0.0
2018-Jul-14 04:29N 37°44' W 025°40'0 0.0
2018-Jul-14 03:59N 37°44' W 025°40'0 0.0
2018-Jul-14 03:29N 37°44' W 025°40'0 0.0
2018-Jul-14 02:59N 37°44' W 025°40'0 0.0
2018-Jul-14 02:29N 37°44' W 025°40'0 0.0
2018-Jul-14 01:59N 37°44' W 025°40'0 0.0
2018-Jul-14 01:29N 37°44' W 025°40'0 0.0
2018-Jul-14 00:56N 37°44' W 025°40'0 0.0
2018-Jul-14 00:29N 37°44' W 025°40'0 0.0
2018-Jul-13 23:59N 37°44' W 025°40'0 0.0
2018-Jul-13 23:29N 37°44' W 025°40'0 0.0
2018-Jul-13 22:59N 37°44' W 025°40'0 0.0
2018-Jul-13 22:29N 37°44' W 025°40'0 0.0
2018-Jul-13 21:59N 37°44' W 025°40'0 0.0
2018-Jul-13 21:29N 37°44' W 025°40'0 0.0
2018-Jul-13 20:59N 37°44' W 025°40'0 0.0
2018-Jul-13 20:29N 37°44' W 025°40'0 0.0
2018-Jul-13 19:59N 37°44' W 025°40'0 0.0
2018-Jul-13 19:29N 37°44' W 025°40'0 0.0
2018-Jul-13 18:59N 37°44' W 025°40'0 0.0
2018-Jul-13 18:29N 37°44' W 025°40'0 0.0
2018-Jul-13 17:59N 37°44' W 025°40'0 0.0
2018-Jul-13 17:26N 37°44' W 025°40'0 0.0
2018-Jul-13 16:59N 37°44' W 025°40'0 0.0
2018-Jul-13 16:29N 37°44' W 025°40'1 1.2
2018-Jul-13 16:00N 37°44' W 025°39'3 6.9
2018-Jul-13 15:30N 37°43' W 025°43'816.2
2018-Jul-13 15:00N 37°48' W 025°52'1716.8
2018-Jul-13 14:00N 37°60' W 026°07'816.6
2018-Jul-13 13:30N 38°06' W 026°14'816.8
2018-Jul-13 13:00N 38°12' W 026°22'816.6
2018-Jul-13 12:30N 38°18' W 026°29'816.5
2018-Jul-13 12:00N 38°23' W 026°36'2916.2
2018-Jul-13 10:13N 38°43' W 027°03'0 0.0
2018-Jul-12 08:44N 38°43' W 027°03'1 3.6
2018-Jul-12 08:27N 38°44' W 027°03'613.8
2018-Jul-12 07:59N 38°49' W 027°07'2316.3
2018-Jul-12 06:33N 38°54' W 027°37'116.0
2018-Jul-12 06:30N 38°54' W 027°37'816.4
2018-Jul-12 06:00N 38°55' W 027°48'816.9
2018-Jul-12 05:30N 38°56' W 027°59'916.9
2018-Jul-12 05:00N 38°57' W 028°09'816.7
2018-Jul-12 04:30N 38°59' W 028°20'817.0
2018-Jul-12 04:00N 39°00' W 028°31'917.0
2018-Jul-12 03:30N 39°02' W 028°42'917.5
2018-Jul-12 03:00N 39°03' W 028°53'917.1
2018-Jul-12 02:30N 39°04' W 029°03'816.7
2018-Jul-12 02:00N 39°06' W 029°14'917.1
2018-Jul-12 01:30N 39°07' W 029°25'917.0
2018-Jul-12 01:00N 39°09' W 029°36'917.2
2018-Jul-12 00:30N 39°11' W 029°47'  
Track history (hours):
 
Tides and Currents Weather Stations Pressure Air Temp Water Temp Dewpoint Dewpoint Depression Visibility Wind Speed Wind Dir Waves Ship Positions

Monte Brasil

Last reported at 2018-Jul-21 15:28 UTC. Time now 2018-Jul-21 15:33 UTC.
Position N 37°44' W 025°40'.

Length 127 m; draft 6.4 m.

Type: Cargo ship. MMSI: 255806010.

Date/timePositionNaut miles runAvg speedWind from/ knotsBaromVisibWave heightAir tempDewpointWater temp
2018-Jul-21 15:28N 37°44' W 025°40'0 0.0
2018-Jul-21 14:58N 37°44' W 025°40'0 0.0
2018-Jul-21 14:28N 37°44' W 025°40'0 0.0
2018-Jul-21 13:28N 37°44' W 025°40'0 0.0
2018-Jul-21 12:58N 37°44' W 025°40'0 0.0
2018-Jul-21 12:28N 37°44' W 025°40'0 0.0
2018-Jul-21 11:58N 37°44' W 025°40'0 0.0
2018-Jul-21 11:28N 37°44' W 025°40'0 0.0
2018-Jul-21 10:58N 37°44' W 025°40'0 0.0
2018-Jul-21 10:28N 37°44' W 025°40'0 0.0
2018-Jul-21 09:58N 37°44' W 025°40'0 0.0
2018-Jul-21 09:28N 37°44' W 025°40'0 0.0
2018-Jul-21 08:58N 37°44' W 025°40'0 0.0
2018-Jul-21 08:28N 37°44' W 025°40'0 0.0
2018-Jul-21 07:58N 37°44' W 025°40'0 0.0
2018-Jul-21 07:28N 37°44' W 025°40'0 0.0
2018-Jul-21 06:58N 37°44' W 025°40'0 0.0
2018-Jul-21 06:28N 37°44' W 025°40'0 0.0
2018-Jul-21 05:58N 37°44' W 025°40'0 0.0
2018-Jul-21 05:31N 37°44' W 025°40'0 0.0
2018-Jul-21 05:01N 37°44' W 025°40'0 0.0
2018-Jul-21 04:31N 37°44' W 025°40'0 0.0
2018-Jul-21 04:00N 37°44' W 025°40'0 0.0
2018-Jul-21 03:30N 37°44' W 025°40'0 0.0
2018-Jul-21 03:00N 37°44' W 025°40'0 0.0
2018-Jul-21 02:30N 37°44' W 025°40'0 0.0
2018-Jul-21 02:00N 37°44' W 025°40'0 0.0
2018-Jul-21 01:30N 37°44' W 025°40'0 0.0
2018-Jul-21 01:00N 37°44' W 025°40'0 0.0
2018-Jul-21 00:30N 37°44' W 025°40'0 0.0
2018-Jul-21 00:00N 37°44' W 025°40'0 0.0
2018-Jul-20 23:30N 37°44' W 025°40'0 0.0
2018-Jul-20 23:00N 37°44' W 025°40'0 0.0
2018-Jul-20 22:30N 37°44' W 025°40'1 1.1
2018-Jul-20 22:00N 37°44' W 025°39'4 8.0
2018-Jul-20 21:30N 37°44' W 025°44'816.5
2018-Jul-20 21:00N 37°49' W 025°52'816.7
2018-Jul-20 20:30N 37°54' W 026°00'916.8
2018-Jul-20 20:00N 38°01' W 026°07'816.8
2018-Jul-20 19:30N 38°07' W 026°15'816.5
2018-Jul-20 19:00N 38°12' W 026°22'4316.5
2018-Jul-20 16:23N 38°43' W 027°02'1 0.0
2018-Jul-19 11:32N 38°43' W 027°03'0 0.0
2018-Jul-19 07:27N 38°43' W 027°03'1 2.6
2018-Jul-19 07:00N 38°43' W 027°02'1 2.9
2018-Jul-19 06:30N 38°42' W 026°60'1 1.9
2018-Jul-19 06:00N 38°43' W 027°01'2711.5
2018-Jul-19 03:38N 38°32' W 027°32'312.9
2018-Jul-19 03:25N 38°31' W 027°36'613.2
2018-Jul-19 02:58N 38°30' W 027°43'613.2
2018-Jul-19 02:31N 38°30' W 027°51'713.3
2018-Jul-19 02:00N 38°31' W 027°59'713.8
2018-Jul-19 01:30N 38°33' W 028°08'714.1
2018-Jul-19 01:01N 38°34' W 028°17'713.6
2018-Jul-19 00:30N 38°36' W 028°25'612.5
2018-Jul-19 00:00N 38°33' W 028°33'4 7.6
2018-Jul-18 23:30N 38°32' W 028°37'0 0.0
2018-Jul-18 22:56N 38°32' W 028°37'0 0.0
2018-Jul-18 22:26N 38°32' W 028°37'0 0.0
2018-Jul-18 21:59N 38°32' W 028°37'0 0.0
2018-Jul-18 21:29N 38°32' W 028°37'0 0.0
2018-Jul-18 20:59N 38°32' W 028°37'0 0.0
2018-Jul-18 20:29N 38°32' W 028°37'0 0.0
2018-Jul-18 19:59N 38°32' W 028°37'0 0.0
2018-Jul-18 19:29N 38°32' W 028°37'0 0.0
2018-Jul-18 18:59N 38°32' W 028°37'0 0.0
2018-Jul-18 18:26N 38°32' W 028°37'0 0.0
2018-Jul-18 17:59N 38°32' W 028°37'0 0.0
2018-Jul-18 17:29N 38°32' W 028°37'0 0.0
2018-Jul-18 16:56N 38°32' W 028°37'0 0.0
2018-Jul-18 16:29N 38°32' W 028°37'0 0.0
2018-Jul-18 15:59N 38°32' W 028°37'0 0.0
2018-Jul-18 15:29N 38°32' W 028°37'0 0.0
2018-Jul-18 14:59N 38°32' W 028°37'0 0.0
2018-Jul-18 14:29N 38°32' W 028°37'0 0.0
2018-Jul-18 13:29N 38°32' W 028°37'0 0.0
2018-Jul-18 12:59N 38°32' W 028°37'0 0.0
2018-Jul-18 12:29N 38°32' W 028°37'0 0.0
2018-Jul-18 11:59N 38°32' W 028°37'0 0.1
2018-Jul-18 11:30N 38°32' W 028°37'1110.8
2018-Jul-18 10:31N 38°35' W 028°24'815.6
2018-Jul-18 10:00N 38°32' W 028°15'815.3
2018-Jul-18 09:30N 38°29' W 028°06'815.2
2018-Jul-18 09:00N 38°26' W 027°57'815.5
2018-Jul-18 08:31N 38°23' W 027°47'916.0
2018-Jul-18 07:57N 38°20' W 027°37'2015.5
2018-Jul-18 06:41N 38°13' W 027°14'1315.2
2018-Jul-18 05:50N 38°07' W 026°59'516.6
2018-Jul-18 05:30N 38°05' W 026°52'816.2
2018-Jul-18 05:00N 38°02' W 026°43'816.2
2018-Jul-18 04:30N 37°59' W 026°33'816.3
2018-Jul-18 04:00N 37°56' W 026°24'815.7
2018-Jul-18 03:31N 37°53' W 026°14'816.0
2018-Jul-18 03:00N 37°50' W 026°05'816.4
2018-Jul-18 02:30N 37°47' W 025°56'815.9
2018-Jul-18 02:01N 37°44' W 025°46'611.3
2018-Jul-18 01:31N 37°44' W 025°39'0 0.8
2018-Jul-18 01:00N 37°44' W 025°40'0 0.0
2018-Jul-18 00:28N 37°44' W 025°40'0 0.0
2018-Jul-17 23:58N 37°44' W 025°40'0 0.0
2018-Jul-17 23:28N 37°44' W 025°40'0 0.0
2018-Jul-17 22:58N 37°44' W 025°40'0 0.0
2018-Jul-17 22:28N 37°44' W 025°40'0 0.0
2018-Jul-17 21:58N 37°44' W 025°40'0 0.0
2018-Jul-17 21:31N 37°44' W 025°40'0 0.0
2018-Jul-17 21:00N 37°44' W 025°40'0 0.0
2018-Jul-17 20:30N 37°44' W 025°40'0 0.0
2018-Jul-17 20:00N 37°44' W 025°40'0 0.0
2018-Jul-17 19:30N 37°44' W 025°40'0 0.0
2018-Jul-17 19:00N 37°44' W 025°40'0 0.0
2018-Jul-17 18:30N 37°44' W 025°40'0 0.0
2018-Jul-17 18:00N 37°44' W 025°40'0 0.0
2018-Jul-17 17:30N 37°44' W 025°40'0 0.0
2018-Jul-17 17:00N 37°44' W 025°40'0 0.0
2018-Jul-17 16:30N 37°44' W 025°40'0 0.0
2018-Jul-17 16:00N 37°44' W 025°40'0 0.0
2018-Jul-17 15:30N 37°44' W 025°40'0 0.0
2018-Jul-17 15:00N 37°44' W 025°40'0 0.0
2018-Jul-17 14:27N 37°44' W 025°40'0 0.0
2018-Jul-17 14:00N 37°44' W 025°40'0 0.0
2018-Jul-17 13:30N 37°44' W 025°40'0 0.0
2018-Jul-17 13:00N 37°44' W 025°40'0 0.0
2018-Jul-17 12:30N 37°44' W 025°40'0 0.0
2018-Jul-17 12:00N 37°44' W 025°40'0 0.0
2018-Jul-17 11:30N 37°44' W 025°40'0 0.0
2018-Jul-17 11:00N 37°44' W 025°40'0 0.0
2018-Jul-17 10:30N 37°44' W 025°40'0 0.0
2018-Jul-17 10:00N 37°44' W 025°40'0 0.0
2018-Jul-17 09:30N 37°44' W 025°40'0 0.0
2018-Jul-17 09:00N 37°44' W 025°40'0 0.0
2018-Jul-17 08:30N 37°44' W 025°40'0 0.0
2018-Jul-17 08:00N 37°44' W 025°40'0 0.0
2018-Jul-17 07:30N 37°44' W 025°40'0 0.0
2018-Jul-17 07:00N 37°44' W 025°40'0 0.0
2018-Jul-17 06:30N 37°44' W 025°40'0 0.0
2018-Jul-17 06:00N 37°44' W 025°40'0 0.0
2018-Jul-17 05:30N 37°44' W 025°40'0 0.0
2018-Jul-17 05:00N 37°44' W 025°40'0 0.0
2018-Jul-17 04:30N 37°44' W 025°40'0 0.0
2018-Jul-17 04:00N 37°44' W 025°40'0 0.0
2018-Jul-17 03:30N 37°44' W 025°40'0 0.0
2018-Jul-17 03:00N 37°44' W 025°40'0 0.0
2018-Jul-17 02:30N 37°44' W 025°40'0 0.0
2018-Jul-17 02:00N 37°44' W 025°40'0 0.0
2018-Jul-17 01:30N 37°44' W 025°40'0 0.0
2018-Jul-17 01:00N 37°44' W 025°40'0 0.0
2018-Jul-17 00:27N 37°44' W 025°40'0 0.0
2018-Jul-16 23:30N 37°44' W 025°40'0 0.0
2018-Jul-16 23:00N 37°44' W 025°40'0 0.0
2018-Jul-16 22:30N 37°44' W 025°40'0 0.0
2018-Jul-16 22:00N 37°44' W 025°40'0 0.0
2018-Jul-16 21:30N 37°44' W 025°40'0 0.0
2018-Jul-16 21:00N 37°44' W 025°40'0 0.0
2018-Jul-16 20:30N 37°44' W 025°40'0 0.0
2018-Jul-16 20:00N 37°44' W 025°40'0 0.0
2018-Jul-16 19:30N 37°44' W 025°40'0 0.0
2018-Jul-16 19:00N 37°44' W 025°40'0 0.0
2018-Jul-16 18:30N 37°44' W 025°40'0 0.0
2018-Jul-16 18:00N 37°44' W 025°40'0 0.0
2018-Jul-16 17:30N 37°44' W 025°40'0 0.0
2018-Jul-16 17:00N 37°44' W 025°40'0 0.0
2018-Jul-16 16:30N 37°44' W 025°40'0 0.0
2018-Jul-16 16:00N 37°44' W 025°40'0 0.0
2018-Jul-16 15:30N 37°44' W 025°40'0 0.0
2018-Jul-16 15:00N 37°44' W 025°40'0 0.0
2018-Jul-16 14:30N 37°44' W 025°40'0 0.0
2018-Jul-16 14:00N 37°44' W 025°40'0 0.0
2018-Jul-16 13:30N 37°44' W 025°40'0 0.0
2018-Jul-16 13:00N 37°44' W 025°40'0 0.0
2018-Jul-16 12:30N 37°44' W 025°40'0 0.0
2018-Jul-16 12:00N 37°44' W 025°40'0 0.0
2018-Jul-16 11:30N 37°44' W 025°40'0 0.0
2018-Jul-16 11:00N 37°44' W 025°40'0 0.0
2018-Jul-16 10:30N 37°44' W 025°40'0 0.0
2018-Jul-16 10:00N 37°44' W 025°40'0 0.0
2018-Jul-16 09:30N 37°44' W 025°40'0 0.0
2018-Jul-16 09:00N 37°44' W 025°40'0 0.0
2018-Jul-16 08:30N 37°44' W 025°40'0 0.0
2018-Jul-16 08:00N 37°44' W 025°40'0 0.0
2018-Jul-16 07:29N 37°44' W 025°40'0 0.0
2018-Jul-16 06:59N 37°44' W 025°40'0 0.0
2018-Jul-16 06:29N 37°44' W 025°40'0 0.0
2018-Jul-16 05:56N 37°44' W 025°40'0 0.0
2018-Jul-16 05:29N 37°44' W 025°40'0 0.0
2018-Jul-16 04:59N 37°44' W 025°40'0 0.0
2018-Jul-16 04:29N 37°44' W 025°40'0 0.0
2018-Jul-16 03:59N 37°44' W 025°40'0 0.0
2018-Jul-16 03:29N 37°44' W 025°40'0 0.0
2018-Jul-16 02:59N 37°44' W 025°40'0 0.0
2018-Jul-16 02:29N 37°44' W 025°40'0 0.0
2018-Jul-16 01:59N 37°44' W 025°40'0 0.0
2018-Jul-16 01:29N 37°44' W 025°40'0 0.0
2018-Jul-16 00:56N 37°44' W 025°40'0 0.0
2018-Jul-16 00:29N 37°44' W 025°40'0 0.0
2018-Jul-15 23:59N 37°44' W 025°40'0 0.0
2018-Jul-15 23:29N 37°44' W 025°40'0 0.0
2018-Jul-15 22:59N 37°44' W 025°40'0 0.0
2018-Jul-15 22:29N 37°44' W 025°40'0 0.0
2018-Jul-15 21:59N 37°44' W 025°40'0 0.0
2018-Jul-15 21:29N 37°44' W 025°40'0 0.0
2018-Jul-15 20:59N 37°44' W 025°40'0 0.0
2018-Jul-15 20:29N 37°44' W 025°40'0 0.0
2018-Jul-15 19:59N 37°44' W 025°40'0 0.0
2018-Jul-15 19:29N 37°44' W 025°40'0 0.0
2018-Jul-15 18:59N 37°44' W 025°40'0 0.0
2018-Jul-15 18:29N 37°44' W 025°40'0 0.0
2018-Jul-15 17:59N 37°44' W 025°40'0 0.0
2018-Jul-15 17:29N 37°44' W 025°40'0 0.0
2018-Jul-15 16:59N 37°44' W 025°40'0 0.0
2018-Jul-15 16:29N 37°44' W 025°40'0 0.0
2018-Jul-15 15:59N 37°44' W 025°40'0 0.0
2018-Jul-15 15:29N 37°44' W 025°40'0 0.0
2018-Jul-15 14:59N 37°44' W 025°40'0 0.0
2018-Jul-15 14:23N 37°44' W 025°40'0 0.0
2018-Jul-15 13:59N 37°44' W 025°40'0 0.0
2018-Jul-15 13:29N 37°44' W 025°40'0 0.0
2018-Jul-15 12:59N 37°44' W 025°40'0 0.0
2018-Jul-15 12:29N 37°44' W 025°40'0 0.0
2018-Jul-15 11:59N 37°44' W 025°40'0 0.0
2018-Jul-15 11:29N 37°44' W 025°40'0 0.0
2018-Jul-15 10:59N 37°44' W 025°40'0 0.0
2018-Jul-15 10:29N 37°44' W 025°40'0 0.0
2018-Jul-15 09:59N 37°44' W 025°40'0 0.0
2018-Jul-15 09:29N 37°44' W 025°40'0 0.0
2018-Jul-15 08:59N 37°44' W 025°40'0 0.0
2018-Jul-15 08:29N 37°44' W 025°40'0 0.0
2018-Jul-15 07:59N 37°44' W 025°40'0 0.0
2018-Jul-15 07:29N 37°44' W 025°40'0 0.0
2018-Jul-15 06:59N 37°44' W 025°40'0 0.0
2018-Jul-15 06:29N 37°44' W 025°40'0 0.0
2018-Jul-15 05:59N 37°44' W 025°40'0 0.0
2018-Jul-15 05:29N 37°44' W 025°40'0 0.0
2018-Jul-15 04:59N 37°44' W 025°40'0 0.0
2018-Jul-15 04:29N 37°44' W 025°40'0 0.0
2018-Jul-15 03:59N 37°44' W 025°40'0 0.0
2018-Jul-15 03:29N 37°44' W 025°40'0 0.0
2018-Jul-15 02:59N 37°44' W 025°40'0 0.0
2018-Jul-15 02:29N 37°44' W 025°40'0 0.0
2018-Jul-15 01:59N 37°44' W 025°40'0 0.0
2018-Jul-15 01:29N 37°44' W 025°40'0 0.0
2018-Jul-15 00:59N 37°44' W 025°40'0 0.0
2018-Jul-15 00:29N 37°44' W 025°40'0 0.0
2018-Jul-14 23:59N 37°44' W 025°40'0 0.0
2018-Jul-14 23:29N 37°44' W 025°40'0 0.0
2018-Jul-14 22:59N 37°44' W 025°40'0 0.0
2018-Jul-14 22:29N 37°44' W 025°40'0 0.0
2018-Jul-14 21:59N 37°44' W 025°40'0 0.0
2018-Jul-14 21:29N 37°44' W 025°40'0 0.0
2018-Jul-14 20:59N 37°44' W 025°40'0 0.0
2018-Jul-14 20:29N 37°44' W 025°40'0 0.0
2018-Jul-14 19:59N 37°44' W 025°40'0 0.0
2018-Jul-14 19:29N 37°44' W 025°40'0 0.0
2018-Jul-14 18:59N 37°44' W 025°40'0 0.0
2018-Jul-14 18:28N 37°44' W 025°40'0 0.0
2018-Jul-14 17:58N 37°44' W 025°40'0 0.0
2018-Jul-14 17:28N 37°44' W 025°40'0 0.0
2018-Jul-14 16:58N 37°44' W 025°40'0 0.0
2018-Jul-14 16:28N 37°44' W 025°40'0 0.0
2018-Jul-14 15:58N 37°44' W 025°40'0 0.0
2018-Jul-14 15:28N 37°44' W 025°40'0 0.0
2018-Jul-14 14:58N 37°44' W 025°40'0 0.0
2018-Jul-14 14:28N 37°44' W 025°40'0 0.0
2018-Jul-14 13:28N 37°44' W 025°40'0 0.0
2018-Jul-14 12:58N 37°44' W 025°40'0 0.0
2018-Jul-14 12:28N 37°44' W 025°40'0 0.0
2018-Jul-14 11:58N 37°44' W 025°40'0 0.0
2018-Jul-14 11:28N 37°44' W 025°40'0 0.0
2018-Jul-14 10:58N 37°44' W 025°40'0 0.0
2018-Jul-14 10:28N 37°44' W 025°40'0 0.0
2018-Jul-14 09:58N 37°44' W 025°40'0 0.0
2018-Jul-14 09:28N 37°44' W 025°40'0 0.0
2018-Jul-14 08:58N 37°44' W 025°40'0 0.0
2018-Jul-14 08:28N 37°44' W 025°40'0 0.0
2018-Jul-14 07:58N 37°44' W 025°40'0 0.0
2018-Jul-14 07:28N 37°44' W 025°40'0 0.0
2018-Jul-14 06:58N 37°44' W 025°40'0 0.0
2018-Jul-14 06:30N 37°44' W 025°40'0 0.0
2018-Jul-14 06:00N 37°44' W 025°40'0 0.0
2018-Jul-14 05:30N 37°44' W 025°40'0 0.0
2018-Jul-14 04:59N 37°44' W 025°40'0 0.0
2018-Jul-14 04:29N 37°44' W 025°40'0 0.0
2018-Jul-14 03:59N 37°44' W 025°40'0 0.0
2018-Jul-14 03:29N 37°44' W 025°40'0 0.0
2018-Jul-14 02:59N 37°44' W 025°40'0 0.0
2018-Jul-14 02:29N 37°44' W 025°40'0 0.0
2018-Jul-14 01:59N 37°44' W 025°40'0 0.0
2018-Jul-14 01:29N 37°44' W 025°40'0 0.0
2018-Jul-14 00:56N 37°44' W 025°40'0 0.0
2018-Jul-14 00:29N 37°44' W 025°40'0 0.0
2018-Jul-13 23:59N 37°44' W 025°40'0 0.0
2018-Jul-13 23:29N 37°44' W 025°40'0 0.0
2018-Jul-13 22:59N 37°44' W 025°40'0 0.0
2018-Jul-13 22:29N 37°44' W 025°40'0 0.0
2018-Jul-13 21:59N 37°44' W 025°40'0 0.0
2018-Jul-13 21:29N 37°44' W 025°40'0 0.0
2018-Jul-13 20:59N 37°44' W 025°40'0 0.0
2018-Jul-13 20:29N 37°44' W 025°40'0 0.0
2018-Jul-13 19:59N 37°44' W 025°40'0 0.0
2018-Jul-13 19:29N 37°44' W 025°40'0 0.0
2018-Jul-13 18:59N 37°44' W 025°40'0 0.0
2018-Jul-13 18:29N 37°44' W 025°40'0 0.0
2018-Jul-13 17:59N 37°44' W 025°40'0 0.0
2018-Jul-13 17:26N 37°44' W 025°40'0 0.0
2018-Jul-13 16:59N 37°44' W 025°40'0 0.0
2018-Jul-13 16:29N 37°44' W 025°40'1 1.2
2018-Jul-13 16:00N 37°44' W 025°39'3 6.9
2018-Jul-13 15:30N 37°43' W 025°43'816.2
2018-Jul-13 15:00N 37°48' W 025°52'1716.8
2018-Jul-13 14:00N 37°60' W 026°07'816.6
2018-Jul-13 13:30N 38°06' W 026°14'816.8
2018-Jul-13 13:00N 38°12' W 026°22'816.6
2018-Jul-13 12:30N 38°18' W 026°29'816.5
2018-Jul-13 12:00N 38°23' W 026°36'2916.2
2018-Jul-13 10:13N 38°43' W 027°03'0 0.0
2018-Jul-12 08:44N 38°43' W 027°03'1 3.6
2018-Jul-12 08:27N 38°44' W 027°03'613.8
2018-Jul-12 07:59N 38°49' W 027°07'2316.3
2018-Jul-12 06:33N 38°54' W 027°37'116.0
2018-Jul-12 06:30N 38°54' W 027°37'816.4
2018-Jul-12 06:00N 38°55' W 027°48'816.9
2018-Jul-12 05:30N 38°56' W 027°59'916.9
2018-Jul-12 05:00N 38°57' W 028°09'816.7
2018-Jul-12 04:30N 38°59' W 028°20'817.0
2018-Jul-12 04:00N 39°00' W 028°31'917.0
2018-Jul-12 03:30N 39°02' W 028°42'917.5
2018-Jul-12 03:00N 39°03' W 028°53'917.1
2018-Jul-12 02:30N 39°04' W 029°03'816.7
2018-Jul-12 02:00N 39°06' W 029°14'917.1
2018-Jul-12 01:30N 39°07' W 029°25'917.0
2018-Jul-12 01:00N 39°09' W 029°36'917.2
2018-Jul-12 00:30N 39°11' W 029°47'  

Dump ship's entire track history